メインページ
METAR-TAF:

METAR-TAF

空港 :

庄内空港

庄内, 日本

緯度: 38-49N, 経度: 139-47E, 海抜: 22m

現時点の気象観測

当レポートは1時間7分前の11:00(UTC)に作成
西/北西の風 3kt、西からの間で変化する
気温 12°C
湿度 76%
気圧 1023 hPa
視程10km以上
高度2000ftの雲はほとんどない

METAR: RJSY 201100Z 29003KT 260V360 9999 FEW020 12/08 Q1023

時間: 21:07 (12:07 UTC)


TAF: 見つかりません

4,000以上の空港の気象観測と天気予報(METAR報とTAF報)

利用可能な観測所は地図上に黄色い丸と赤い丸で示す。

丸の上にカーソルを重ねると観測所名を参照できる。

次にクリックすると気象観測と天気予報を参照できる。

マップの切り替え:黒色「×」印の緑ボタンをクリックして拡大、「-」印の緑ボタンをクリックして縮小、緑色の三角印をクリックして隣りの地図に切り替え


METAR-TAF: